sensor_id;sensor_type;location;lat;lon;timestamp;pressure;altitude;pressure_sealevel;temperature;humidity
60886;BME280;46736;41.654;-8.438;2022-07-23T00:00:37;100609.59;;;22.52;51.43
60886;BME280;46736;41.654;-8.438;2022-07-23T00:02:38;100606.69;;;22.48;51.59
60886;BME280;46736;41.654;-8.438;2022-07-23T00:04:39;100606.50;;;22.36;51.96
60886;BME280;46736;41.654;-8.438;2022-07-23T00:06:40;100574.88;;;22.12;51.64
60886;BME280;46736;41.654;-8.438;2022-07-23T00:08:42;100584.22;;;22.11;52.55
60886;BME280;46736;41.654;-8.438;2022-07-23T00:10:44;100590.53;;;22.20;52.03
60886;BME280;46736;41.654;-8.438;2022-07-23T00:12:45;100599.59;;;22.30;52.08
60886;BME280;46736;41.654;-8.438;2022-07-23T00:14:45;100596.50;;;22.22;52.25
60886;BME280;46736;41.654;-8.438;2022-07-23T00:16:46;100596.47;;;22.14;52.62
60886;BME280;46736;41.654;-8.438;2022-07-23T00:18:47;100581.09;;;21.87;52.96
60886;BME280;46736;41.654;-8.438;2022-07-23T00:20:47;100597.72;;;21.90;52.84
60886;BME280;46736;41.654;-8.438;2022-07-23T00:22:50;100603.66;;;21.83;53.44
60886;BME280;46736;41.654;-8.438;2022-07-23T00:24:51;100590.75;;;21.75;53.20
60886;BME280;46736;41.654;-8.438;2022-07-23T00:26:52;100591.69;;;21.71;53.50
60886;BME280;46736;41.654;-8.438;2022-07-23T00:28:52;100600.53;;;21.68;53.53
60886;BME280;46736;41.654;-8.438;2022-07-23T00:30:54;100594.25;;;21.67;53.73
60886;BME280;46736;41.654;-8.438;2022-07-23T00:32:57;100585.72;;;21.69;53.28
60886;BME280;46736;41.654;-8.438;2022-07-23T00:34:58;100588.00;;;21.75;53.18
60886;BME280;46736;41.654;-8.438;2022-07-23T00:36:59;100581.75;;;21.83;53.40
60886;BME280;46736;41.654;-8.438;2022-07-23T00:39:00;100593.84;;;21.91;53.33
60886;BME280;46736;41.654;-8.438;2022-07-23T00:41:01;100584.19;;;21.85;53.51
60886;BME280;46736;41.654;-8.438;2022-07-23T00:43:03;100569.50;;;21.81;53.70
60886;BME280;46736;41.654;-8.438;2022-07-23T00:45:04;100590.59;;;21.80;54.23
60886;BME280;46736;41.654;-8.438;2022-07-23T00:47:06;100602.97;;;21.69;54.42
60886;BME280;46736;41.654;-8.438;2022-07-23T00:49:07;100584.50;;;21.44;54.68
60886;BME280;46736;41.654;-8.438;2022-07-23T00:51:08;100597.94;;;21.31;54.98
60886;BME280;46736;41.654;-8.438;2022-07-23T00:53:09;100589.16;;;21.12;55.62
60886;BME280;46736;41.654;-8.438;2022-07-23T00:55:11;100580.13;;;21.11;55.64
60886;BME280;46736;41.654;-8.438;2022-07-23T00:57:12;100597.66;;;21.10;56.14
60886;BME280;46736;41.654;-8.438;2022-07-23T00:59:13;100573.69;;;21.07;56.11
60886;BME280;46736;41.654;-8.438;2022-07-23T01:03:28;100566.88;;;20.73;56.09
60886;BME280;46736;41.654;-8.438;2022-07-23T01:05:29;100575.81;;;20.65;56.44
60886;BME280;46736;41.654;-8.438;2022-07-23T01:07:30;100595.19;;;20.55;57.36
60886;BME280;46736;41.654;-8.438;2022-07-23T01:09:31;100582.06;;;20.29;57.47
60886;BME280;46736;41.654;-8.438;2022-07-23T01:11:34;100603.97;;;20.16;57.51
60886;BME280;46736;41.654;-8.438;2022-07-23T01:13:42;100590.72;;;19.95;58.13
60886;BME280;46736;41.654;-8.438;2022-07-23T01:16:00;100591.34;;;19.92;59.03
60886;BME280;46736;41.654;-8.438;2022-07-23T01:18:33;100599.13;;;19.85;59.46
60886;BME280;46736;41.654;-8.438;2022-07-23T01:20:35;100598.72;;;19.78;59.56
60886;BME280;46736;41.654;-8.438;2022-07-23T01:22:36;100591.75;;;19.72;59.14
60886;BME280;46736;41.654;-8.438;2022-07-23T01:26:47;100597.41;;;19.89;57.57
60886;BME280;46736;41.654;-8.438;2022-07-23T01:28:48;100590.13;;;19.84;58.14
60886;BME280;46736;41.654;-8.438;2022-07-23T01:30:49;100592.75;;;19.76;58.71
60886;BME280;46736;41.654;-8.438;2022-07-23T01:32:50;100593.25;;;19.64;59.70
60886;BME280;46736;41.654;-8.438;2022-07-23T01:34:54;100589.41;;;19.51;60.25
60886;BME280;46736;41.654;-8.438;2022-07-23T01:36:55;100594.25;;;19.54;60.32
60886;BME280;46736;41.654;-8.438;2022-07-23T01:39:28;100599.19;;;19.52;60.62
60886;BME280;46736;41.654;-8.438;2022-07-23T01:41:29;100591.72;;;19.44;60.68
60886;BME280;46736;41.654;-8.438;2022-07-23T01:43:30;100582.91;;;19.47;60.55
60886;BME280;46736;41.654;-8.438;2022-07-23T01:45:31;100588.59;;;19.51;60.70
60886;BME280;46736;41.654;-8.438;2022-07-23T01:47:32;100581.41;;;19.41;61.54
60886;BME280;46736;41.654;-8.438;2022-07-23T01:49:33;100583.72;;;19.34;61.71
60886;BME280;46736;41.654;-8.438;2022-07-23T01:51:49;100576.84;;;19.22;60.69
60886;BME280;46736;41.654;-8.438;2022-07-23T01:54:14;100590.38;;;19.28;60.63
60886;BME280;46736;41.654;-8.438;2022-07-23T01:56:15;100577.00;;;19.12;61.17
60886;BME280;46736;41.654;-8.438;2022-07-23T01:58:16;100579.41;;;19.00;61.75
60886;BME280;46736;41.654;-8.438;2022-07-23T02:00:17;100573.16;;;18.99;62.42
60886;BME280;46736;41.654;-8.438;2022-07-23T02:02:21;100583.84;;;18.96;62.47
60886;BME280;46736;41.654;-8.438;2022-07-23T02:04:24;100562.06;;;18.77;62.59
60886;BME280;46736;41.654;-8.438;2022-07-23T02:08:47;100585.25;;;18.93;62.82
60886;BME280;46736;41.654;-8.438;2022-07-23T02:10:50;100589.22;;;18.82;63.32
60886;BME280;46736;41.654;-8.438;2022-07-23T02:12:52;100563.31;;;18.66;63.16
60886;BME280;46736;41.654;-8.438;2022-07-23T02:14:52;100585.84;;;18.71;63.51
60886;BME280;46736;41.654;-8.438;2022-07-23T02:16:53;100583.19;;;18.66;63.96
60886;BME280;46736;41.654;-8.438;2022-07-23T02:18:57;100539.59;;;18.33;64.12
60886;BME280;46736;41.654;-8.438;2022-07-23T02:20:58;100590.94;;;18.78;64.00
60886;BME280;46736;41.654;-8.438;2022-07-23T02:25:24;100586.59;;;18.58;63.68
60886;BME280;46736;41.654;-8.438;2022-07-23T02:27:30;100572.75;;;18.54;63.28
60886;BME280;46736;41.654;-8.438;2022-07-23T02:29:32;100597.25;;;18.73;63.19
60886;BME280;46736;41.654;-8.438;2022-07-23T02:31:33;100592.75;;;18.64;63.84
60886;BME280;46736;41.654;-8.438;2022-07-23T02:33:34;100588.78;;;18.56;64.59
60886;BME280;46736;41.654;-8.438;2022-07-23T02:35:34;100586.53;;;18.44;65.24
60886;BME280;46736;41.654;-8.438;2022-07-23T02:37:37;100594.25;;;18.37;65.74
60886;BME280;46736;41.654;-8.438;2022-07-23T02:39:37;100591.06;;;18.30;66.29
60886;BME280;46736;41.654;-8.438;2022-07-23T02:41:38;100575.41;;;18.22;66.35
60886;BME280;46736;41.654;-8.438;2022-07-23T02:43:39;100566.63;;;18.06;66.96
60886;BME280;46736;41.654;-8.438;2022-07-23T02:47:49;100571.69;;;17.93;67.83
60886;BME280;46736;41.654;-8.438;2022-07-23T02:49:49;100577.66;;;17.96;67.77
60886;BME280;46736;41.654;-8.438;2022-07-23T02:51:50;100582.50;;;17.99;68.18
60886;BME280;46736;41.654;-8.438;2022-07-23T02:53:51;100581.56;;;18.08;68.16
60886;BME280;46736;41.654;-8.438;2022-07-23T02:56:08;100598.44;;;18.10;68.49
60886;BME280;46736;41.654;-8.438;2022-07-23T02:58:08;100593.13;;;18.00;68.90
60886;BME280;46736;41.654;-8.438;2022-07-23T03:02:48;100548.66;;;17.62;69.22
60886;BME280;46736;41.654;-8.438;2022-07-23T03:04:49;100572.94;;;17.82;69.18
60886;BME280;46736;41.654;-8.438;2022-07-23T03:06:50;100580.69;;;17.94;68.79
60886;BME280;46736;41.654;-8.438;2022-07-23T03:08:51;100579.84;;;17.93;69.11
60886;BME280;46736;41.654;-8.438;2022-07-23T03:10:52;100581.84;;;17.88;69.70
60886;BME280;46736;41.654;-8.438;2022-07-23T03:12:53;100574.06;;;17.76;69.74
60886;BME280;46736;41.654;-8.438;2022-07-23T03:14:53;100556.38;;;17.55;69.88
60886;BME280;46736;41.654;-8.438;2022-07-23T03:16:55;100579.16;;;17.59;70.53
60886;BME280;46736;41.654;-8.438;2022-07-23T03:18:56;100576.44;;;17.59;70.53
60886;BME280;46736;41.654;-8.438;2022-07-23T03:20:57;100564.28;;;17.51;70.54
60886;BME280;46736;41.654;-8.438;2022-07-23T03:22:57;100569.09;;;17.59;70.60
60886;BME280;46736;41.654;-8.438;2022-07-23T03:24:58;100586.09;;;17.70;70.42
60886;BME280;46736;41.654;-8.438;2022-07-23T03:27:03;100566.16;;;17.56;70.46
60886;BME280;46736;41.654;-8.438;2022-07-23T03:29:03;100577.72;;;17.66;70.30
60886;BME280;46736;41.654;-8.438;2022-07-23T03:31:05;100585.59;;;17.68;70.31
60886;BME280;46736;41.654;-8.438;2022-07-23T03:33:06;100561.41;;;17.42;70.34
60886;BME280;46736;41.654;-8.438;2022-07-23T03:37:48;100558.56;;;17.28;70.56
60886;BME280;46736;41.654;-8.438;2022-07-23T03:39:49;100586.78;;;17.57;70.68
60886;BME280;46736;41.654;-8.438;2022-07-23T03:41:50;100586.03;;;17.51;70.51
60886;BME280;46736;41.654;-8.438;2022-07-23T03:43:50;100586.91;;;17.46;70.69
60886;BME280;46736;41.654;-8.438;2022-07-23T03:45:52;100586.19;;;17.36;71.34
60886;BME280;46736;41.654;-8.438;2022-07-23T03:47:53;100593.06;;;17.28;71.60
60886;BME280;46736;41.654;-8.438;2022-07-23T03:52:04;100597.16;;;17.25;71.66
60886;BME280;46736;41.654;-8.438;2022-07-23T03:54:05;100598.28;;;17.24;72.12
60886;BME280;46736;41.654;-8.438;2022-07-23T04:00:31;100588.22;;;17.25;72.16
60886;BME280;46736;41.654;-8.438;2022-07-23T04:02:32;100590.06;;;17.30;71.96
60886;BME280;46736;41.654;-8.438;2022-07-23T04:07:06;100602.16;;;17.18;71.75
60886;BME280;46736;41.654;-8.438;2022-07-23T04:09:08;100595.44;;;17.11;72.07
60886;BME280;46736;41.654;-8.438;2022-07-23T04:11:08;100597.56;;;17.14;72.26
60886;BME280;46736;41.654;-8.438;2022-07-23T04:13:10;100603.59;;;17.11;72.05
60886;BME280;46736;41.654;-8.438;2022-07-23T04:15:11;100606.91;;;17.02;72.47
60886;BME280;46736;41.654;-8.438;2022-07-23T04:17:12;100604.19;;;17.02;72.50
60886;BME280;46736;41.654;-8.438;2022-07-23T04:19:13;100594.13;;;17.03;72.24
60886;BME280;46736;41.654;-8.438;2022-07-23T04:21:26;100611.78;;;17.05;72.24
60886;BME280;46736;41.654;-8.438;2022-07-23T04:23:27;100616.09;;;17.06;71.67
60886;BME280;46736;41.654;-8.438;2022-07-23T04:28:21;100601.47;;;17.02;71.29
60886;BME280;46736;41.654;-8.438;2022-07-23T04:30:22;100620.06;;;17.19;71.34
60886;BME280;46736;41.654;-8.438;2022-07-23T04:32:23;100596.28;;;17.06;71.45
60886;BME280;46736;41.654;-8.438;2022-07-23T04:34:25;100619.34;;;17.09;71.76
60886;BME280;46736;41.654;-8.438;2022-07-23T04:36:27;100622.78;;;17.19;71.53
60886;BME280;46736;41.654;-8.438;2022-07-23T04:38:28;100625.63;;;17.04;71.70
60886;BME280;46736;41.654;-8.438;2022-07-23T04:40:33;100623.81;;;16.94;72.21
60886;BME280;46736;41.654;-8.438;2022-07-23T04:42:34;100636.59;;;16.94;72.34
60886;BME280;46736;41.654;-8.438;2022-07-23T04:44:35;100627.13;;;16.86;72.07
60886;BME280;46736;41.654;-8.438;2022-07-23T04:52:43;100644.06;;;16.68;73.10
60886;BME280;46736;41.654;-8.438;2022-07-23T04:54:43;100641.34;;;16.68;73.13
60886;BME280;46736;41.654;-8.438;2022-07-23T04:59:18;100639.00;;;16.56;73.77
60886;BME280;46736;41.654;-8.438;2022-07-23T05:01:21;100645.22;;;16.61;73.70
60886;BME280;46736;41.654;-8.438;2022-07-23T05:03:21;100639.56;;;16.53;73.98
60886;BME280;46736;41.654;-8.438;2022-07-23T05:05:22;100649.03;;;16.55;73.96
60886;BME280;46736;41.654;-8.438;2022-07-23T05:07:25;100643.13;;;16.48;74.27
60886;BME280;46736;41.654;-8.438;2022-07-23T05:09:27;100642.56;;;16.46;74.55
60886;BME280;46736;41.654;-8.438;2022-07-23T05:13:30;100650.28;;;16.73;73.74
60886;BME280;46736;41.654;-8.438;2022-07-23T05:15:31;100640.78;;;16.71;73.54
60886;BME280;46736;41.654;-8.438;2022-07-23T05:17:32;100618.38;;;16.50;73.99
60886;BME280;46736;41.654;-8.438;2022-07-23T05:19:43;100616.78;;;16.49;73.86
60886;BME280;46736;41.654;-8.438;2022-07-23T05:21:45;100636.03;;;16.47;74.05
60886;BME280;46736;41.654;-8.438;2022-07-23T05:26:31;100656.72;;;16.43;74.89
60886;BME280;46736;41.654;-8.438;2022-07-23T05:28:51;100662.13;;;16.48;74.89
60886;BME280;46736;41.654;-8.438;2022-07-23T05:40:54;100645.31;;;16.41;75.16
60886;BME280;46736;41.654;-8.438;2022-07-23T05:45:28;100674.00;;;16.57;75.06
60886;BME280;46736;41.654;-8.438;2022-07-23T05:47:39;100658.50;;;16.58;74.92
60886;BME280;46736;41.654;-8.438;2022-07-23T05:49:40;100672.31;;;16.72;74.87
60886;BME280;46736;41.654;-8.438;2022-07-23T05:52:06;100667.94;;;16.71;74.86
60886;BME280;46736;41.654;-8.438;2022-07-23T05:54:28;100671.50;;;16.71;75.09
60886;BME280;46736;41.654;-8.438;2022-07-23T05:56:28;100669.09;;;16.65;75.58
60886;BME280;46736;41.654;-8.438;2022-07-23T05:58:29;100651.13;;;16.74;75.00
60886;BME280;46736;41.654;-8.438;2022-07-23T06:00:31;100672.50;;;16.86;74.80
60886;BME280;46736;41.654;-8.438;2022-07-23T06:02:32;100671.09;;;16.93;74.80
60886;BME280;46736;41.654;-8.438;2022-07-23T06:06:50;100668.03;;;17.05;74.39
60886;BME280;46736;41.654;-8.438;2022-07-23T06:08:51;100676.97;;;17.11;73.88
60886;BME280;46736;41.654;-8.438;2022-07-23T06:13:17;100680.13;;;17.18;74.25
60886;BME280;46736;41.654;-8.438;2022-07-23T06:15:19;100678.25;;;17.18;74.43
60886;BME280;46736;41.654;-8.438;2022-07-23T06:17:20;100677.69;;;17.21;74.61
60886;BME280;46736;41.654;-8.438;2022-07-23T06:19:21;100668.91;;;17.30;74.73
60886;BME280;46736;41.654;-8.438;2022-07-23T06:21:23;100641.53;;;17.21;74.27
60886;BME280;46736;41.654;-8.438;2022-07-23T06:23:44;100676.97;;;17.40;74.29
60886;BME280;46736;41.654;-8.438;2022-07-23T06:25:44;100660.94;;;17.38;74.18
60886;BME280;46736;41.654;-8.438;2022-07-23T06:27:46;100675.22;;;17.54;74.79
60886;BME280;46736;41.654;-8.438;2022-07-23T06:29:47;100665.97;;;17.55;74.64
60886;BME280;46736;41.654;-8.438;2022-07-23T06:31:48;100670.25;;;17.61;74.38
60886;BME280;46736;41.654;-8.438;2022-07-23T06:33:49;100662.91;;;17.62;74.46
60886;BME280;46736;41.654;-8.438;2022-07-23T06:35:50;100668.22;;;17.72;73.62
60886;BME280;46736;41.654;-8.438;2022-07-23T06:37:51;100659.25;;;17.71;73.00
60886;BME280;46736;41.654;-8.438;2022-07-23T06:39:51;100677.81;;;17.93;71.97
60886;BME280;46736;41.654;-8.438;2022-07-23T06:41:53;100668.00;;;17.98;71.34
60886;BME280;46736;41.654;-8.438;2022-07-23T06:43:53;100650.22;;;18.05;70.30
60886;BME280;46736;41.654;-8.438;2022-07-23T06:45:56;100670.94;;;18.25;70.87
60886;BME280;46736;41.654;-8.438;2022-07-23T06:47:58;100677.41;;;18.29;70.40
60886;BME280;46736;41.654;-8.438;2022-07-23T06:49:59;100656.50;;;18.25;70.43
60886;BME280;46736;41.654;-8.438;2022-07-23T06:52:00;100674.47;;;18.45;70.11
60886;BME280;46736;41.654;-8.438;2022-07-23T06:54:34;100677.34;;;18.53;69.60
60886;BME280;46736;41.654;-8.438;2022-07-23T06:56:35;100676.13;;;18.65;68.15
60886;BME280;46736;41.654;-8.438;2022-07-23T06:58:36;100653.81;;;18.63;67.64
60886;BME280;46736;41.654;-8.438;2022-07-23T07:00:36;100671.63;;;18.74;68.07
60886;BME280;46736;41.654;-8.438;2022-07-23T07:02:38;100670.28;;;18.71;68.32
60886;BME280;46736;41.654;-8.438;2022-07-23T07:04:39;100653.16;;;18.71;68.13
60886;BME280;46736;41.654;-8.438;2022-07-23T07:06:40;100686.97;;;18.89;67.76
60886;BME280;46736;41.654;-8.438;2022-07-23T07:08:41;100669.06;;;19.01;66.35
60886;BME280;46736;41.654;-8.438;2022-07-23T07:10:43;100660.66;;;19.17;65.44
60886;BME280;46736;41.654;-8.438;2022-07-23T07:12:44;100662.28;;;19.32;65.03
60886;BME280;46736;41.654;-8.438;2022-07-23T07:14:45;100661.38;;;19.22;65.39
60886;BME280;46736;41.654;-8.438;2022-07-23T07:18:56;100673.84;;;19.42;64.90
60886;BME280;46736;41.654;-8.438;2022-07-23T07:20:57;100682.75;;;19.48;64.77
60886;BME280;46736;41.654;-8.438;2022-07-23T07:25:22;100659.38;;;19.42;64.75
60886;BME280;46736;41.654;-8.438;2022-07-23T07:27:23;100652.50;;;19.31;65.04
60886;BME280;46736;41.654;-8.438;2022-07-23T07:29:24;100681.13;;;19.47;65.11
60886;BME280;46736;41.654;-8.438;2022-07-23T07:31:24;100646.78;;;19.46;64.37
60886;BME280;46736;41.654;-8.438;2022-07-23T07:33:25;100680.13;;;19.57;64.19
60886;BME280;46736;41.654;-8.438;2022-07-23T07:35:26;100672.94;;;19.80;63.76
60886;BME280;46736;41.654;-8.438;2022-07-23T07:37:27;100664.13;;;19.69;63.37
60886;BME280;46736;41.654;-8.438;2022-07-23T07:39:28;100658.09;;;19.53;63.91
60886;BME280;46736;41.654;-8.438;2022-07-23T07:41:30;100672.72;;;19.76;63.62
60886;BME280;46736;41.654;-8.438;2022-07-23T07:53:13;100683.44;;;21.68;58.53
60886;BME280;46736;41.654;-8.438;2022-07-23T07:55:14;100689.41;;;23.93;52.01
60886;BME280;46736;41.654;-8.438;2022-07-23T07:57:14;100680.28;;;24.69;48.79
60886;BME280;46736;41.654;-8.438;2022-07-23T07:59:16;100675.34;;;26.48;45.05
60886;BME280;46736;41.654;-8.438;2022-07-23T08:01:17;100697.81;;;28.39;40.72
60886;BME280;46736;41.654;-8.438;2022-07-23T08:05:31;100680.88;;;30.60;36.53
60886;BME280;46736;41.654;-8.438;2022-07-23T08:07:32;100682.53;;;31.73;33.89
60886;BME280;46736;41.654;-8.438;2022-07-23T08:09:36;100709.03;;;32.63;32.97
60886;BME280;46736;41.654;-8.438;2022-07-23T08:11:36;100717.34;;;33.65;30.09
60886;BME280;46736;41.654;-8.438;2022-07-23T08:13:37;100709.34;;;34.35;29.47
60886;BME280;46736;41.654;-8.438;2022-07-23T08:15:38;100713.81;;;35.27;27.88
60886;BME280;46736;41.654;-8.438;2022-07-23T08:17:40;100709.47;;;35.79;27.30
60886;BME280;46736;41.654;-8.438;2022-07-23T08:19:41;100698.03;;;35.62;26.97
60886;BME280;46736;41.654;-8.438;2022-07-23T08:24:07;100709.72;;;36.40;26.05
60886;BME280;46736;41.654;-8.438;2022-07-23T08:26:07;100695.34;;;36.38;26.52
60886;BME280;46736;41.654;-8.438;2022-07-23T08:28:10;100707.34;;;37.61;24.05
60886;BME280;46736;41.654;-8.438;2022-07-23T08:30:11;100711.56;;;37.73;24.61
60886;BME280;46736;41.654;-8.438;2022-07-23T08:32:12;100714.41;;;37.93;23.83
60886;BME280;46736;41.654;-8.438;2022-07-23T08:34:12;100708.56;;;37.60;24.57
60886;BME280;46736;41.654;-8.438;2022-07-23T08:36:13;100710.78;;;37.45;24.57
60886;BME280;46736;41.654;-8.438;2022-07-23T08:38:16;100715.00;;;37.30;25.18
60886;BME280;46736;41.654;-8.438;2022-07-23T08:40:17;100708.09;;;38.13;24.09
60886;BME280;46736;41.654;-8.438;2022-07-23T08:42:18;100708.28;;;38.65;23.21
60886;BME280;46736;41.654;-8.438;2022-07-23T08:44:20;100705.00;;;38.90;22.51
60886;BME280;46736;41.654;-8.438;2022-07-23T08:46:21;100705.41;;;38.69;22.55
60886;BME280;46736;41.654;-8.438;2022-07-23T08:48:26;100700.72;;;39.18;22.20
60886;BME280;46736;41.654;-8.438;2022-07-23T08:50:26;100722.28;;;38.89;22.39
60886;BME280;46736;41.654;-8.438;2022-07-23T08:52:27;100710.50;;;39.30;22.01
60886;BME280;46736;41.654;-8.438;2022-07-23T08:54:29;100715.94;;;39.90;21.81
60886;BME280;46736;41.654;-8.438;2022-07-23T08:56:30;100703.84;;;39.73;21.99
60886;BME280;46736;41.654;-8.438;2022-07-23T08:58:31;100707.06;;;40.21;21.23
60886;BME280;46736;41.654;-8.438;2022-07-23T09:00:32;100708.16;;;40.11;21.72
60886;BME280;46736;41.654;-8.438;2022-07-23T09:02:42;100712.97;;;40.27;21.12
60886;BME280;46736;41.654;-8.438;2022-07-23T09:04:43;100700.97;;;40.39;21.29
60886;BME280;46736;41.654;-8.438;2022-07-23T09:06:44;100709.78;;;40.83;20.44
60886;BME280;46736;41.654;-8.438;2022-07-23T09:08:45;100717.22;;;40.77;20.89
60886;BME280;46736;41.654;-8.438;2022-07-23T09:15:48;100708.06;;;40.85;20.91
60886;BME280;46736;41.654;-8.438;2022-07-23T09:20:15;100708.59;;;41.22;20.83
60886;BME280;46736;41.654;-8.438;2022-07-23T09:24:27;100711.16;;;42.15;20.24
60886;BME280;46736;41.654;-8.438;2022-07-23T09:34:31;100693.00;;;42.38;19.96
60886;BME280;46736;41.654;-8.438;2022-07-23T09:36:37;100705.34;;;41.97;19.82
60886;BME280;46736;41.654;-8.438;2022-07-23T09:38:48;100699.91;;;42.03;19.56
60886;BME280;46736;41.654;-8.438;2022-07-23T09:45:44;100698.59;;;41.82;20.48
60886;BME280;46736;41.654;-8.438;2022-07-23T09:47:46;100705.22;;;41.27;21.26
60886;BME280;46736;41.654;-8.438;2022-07-23T09:50:10;100701.25;;;42.11;20.25
60886;BME280;46736;41.654;-8.438;2022-07-23T09:52:57;100701.53;;;43.23;19.13
60886;BME280;46736;41.654;-8.438;2022-07-23T09:58:31;100678.97;;;43.69;18.55
60886;BME280;46736;41.654;-8.438;2022-07-23T10:00:32;100697.28;;;44.05;17.89
60886;BME280;46736;41.654;-8.438;2022-07-23T10:02:33;100702.94;;;44.23;17.82
60886;BME280;46736;41.654;-8.438;2022-07-23T10:08:12;100692.63;;;43.52;18.61
60886;BME280;46736;41.654;-8.438;2022-07-23T10:13:27;100680.50;;;44.71;17.99
60886;BME280;46736;41.654;-8.438;2022-07-23T10:15:58;100689.94;;;45.29;17.41
60886;BME280;46736;41.654;-8.438;2022-07-23T10:17:59;100678.22;;;45.84;17.01
60886;BME280;46736;41.654;-8.438;2022-07-23T10:20:00;100682.59;;;46.10;15.99
60886;BME280;46736;41.654;-8.438;2022-07-23T10:22:06;100677.78;;;45.29;16.91
60886;BME280;46736;41.654;-8.438;2022-07-23T10:24:16;100678.06;;;44.97;17.57
60886;BME280;46736;41.654;-8.438;2022-07-23T10:26:29;100675.44;;;44.75;17.36
60886;BME280;46736;41.654;-8.438;2022-07-23T10:31:10;100674.78;;;44.10;19.01
60886;BME280;46736;41.654;-8.438;2022-07-23T10:37:37;100674.00;;;44.89;18.36
60886;BME280;46736;41.654;-8.438;2022-07-23T10:39:39;100674.59;;;45.36;18.12
60886;BME280;46736;41.654;-8.438;2022-07-23T10:41:41;100675.91;;;45.26;19.17
60886;BME280;46736;41.654;-8.438;2022-07-23T10:53:15;100671.75;;;46.23;16.66
60886;BME280;46736;41.654;-8.438;2022-07-23T10:57:49;100672.38;;;46.42;16.27
60886;BME280;46736;41.654;-8.438;2022-07-23T11:00:25;100666.16;;;46.14;17.01
60886;BME280;46736;41.654;-8.438;2022-07-23T11:02:30;100650.25;;;46.22;16.08
60886;BME280;46736;41.654;-8.438;2022-07-23T11:11:26;100642.94;;;45.76;15.98
60886;BME280;46736;41.654;-8.438;2022-07-23T11:13:41;100645.28;;;45.78;15.79
60886;BME280;46736;41.654;-8.438;2022-07-23T11:20:17;100627.06;;;45.84;15.63
60886;BME280;46736;41.654;-8.438;2022-07-23T11:22:34;100648.03;;;45.15;16.19
60886;BME280;46736;41.654;-8.438;2022-07-23T11:24:50;100638.03;;;43.42;17.73
60886;BME280;46736;41.654;-8.438;2022-07-23T11:40:34;100641.25;;;42.29;20.33
60886;BME280;46736;41.654;-8.438;2022-07-23T11:42:54;100640.25;;;41.66;20.05
60886;BME280;46736;41.654;-8.438;2022-07-23T11:47:42;100621.81;;;41.14;21.60
60886;BME280;46736;41.654;-8.438;2022-07-23T11:52:26;100612.00;;;39.50;22.73
60886;BME280;46736;41.654;-8.438;2022-07-23T11:57:30;100610.81;;;38.42;24.50
60886;BME280;46736;41.654;-8.438;2022-07-23T11:59:33;100608.44;;;38.41;25.01
60886;BME280;46736;41.654;-8.438;2022-07-23T12:01:34;100608.25;;;37.88;25.34
60886;BME280;46736;41.654;-8.438;2022-07-23T12:03:34;100613.94;;;36.83;27.62
60886;BME280;46736;41.654;-8.438;2022-07-23T12:05:38;100596.59;;;35.96;27.67
60886;BME280;46736;41.654;-8.438;2022-07-23T12:07:42;100602.41;;;35.26;28.32
60886;BME280;46736;41.654;-8.438;2022-07-23T12:09:44;100602.63;;;34.90;28.71
60886;BME280;46736;41.654;-8.438;2022-07-23T12:12:00;100603.00;;;34.92;28.94
60886;BME280;46736;41.654;-8.438;2022-07-23T12:14:02;100602.19;;;34.99;28.78
60886;BME280;46736;41.654;-8.438;2022-07-23T12:18:37;100589.28;;;35.16;28.58
60886;BME280;46736;41.654;-8.438;2022-07-23T12:20:41;100597.78;;;35.01;27.53
60886;BME280;46736;41.654;-8.438;2022-07-23T12:22:45;100593.31;;;35.15;28.05
60886;BME280;46736;41.654;-8.438;2022-07-23T12:27:12;100577.53;;;35.39;28.02
60886;BME280;46736;41.654;-8.438;2022-07-23T12:29:14;100549.66;;;35.28;28.08
60886;BME280;46736;41.654;-8.438;2022-07-23T12:31:15;100584.81;;;35.74;28.28
60886;BME280;46736;41.654;-8.438;2022-07-23T12:40:42;100564.28;;;35.46;25.85
60886;BME280;46736;41.654;-8.438;2022-07-23T12:42:43;100543.75;;;35.19;25.62
60886;BME280;46736;41.654;-8.438;2022-07-23T12:45:08;100563.56;;;35.39;27.35
60886;BME280;46736;41.654;-8.438;2022-07-23T12:47:10;100567.28;;;35.66;26.76
60886;BME280;46736;41.654;-8.438;2022-07-23T12:49:10;100560.19;;;35.62;26.46
60886;BME280;46736;41.654;-8.438;2022-07-23T12:51:21;100562.03;;;35.76;27.06
60886;BME280;46736;41.654;-8.438;2022-07-23T13:01:32;100545.63;;;35.74;29.20
60886;BME280;46736;41.654;-8.438;2022-07-23T13:08:59;100528.66;;;35.05;29.99
60886;BME280;46736;41.654;-8.438;2022-07-23T13:13:41;100544.19;;;35.17;30.57
60886;BME280;46736;41.654;-8.438;2022-07-23T13:15:52;100524.28;;;35.01;32.55
60886;BME280;46736;41.654;-8.438;2022-07-23T13:17:54;100537.59;;;34.82;33.62
60886;BME280;46736;41.654;-8.438;2022-07-23T13:19:56;100534.84;;;34.75;34.10
60886;BME280;46736;41.654;-8.438;2022-07-23T13:27:05;100540.72;;;34.95;31.51
60886;BME280;46736;41.654;-8.438;2022-07-23T13:29:41;100537.28;;;34.70;32.75
60886;BME280;46736;41.654;-8.438;2022-07-23T13:31:41;100526.75;;;34.95;31.84
60886;BME280;46736;41.654;-8.438;2022-07-23T13:36:29;100525.66;;;34.82;31.58
60886;BME280;46736;41.654;-8.438;2022-07-23T13:38:30;100529.56;;;34.88;30.29
60886;BME280;46736;41.654;-8.438;2022-07-23T13:43:04;100526.16;;;34.66;32.64
60886;BME280;46736;41.654;-8.438;2022-07-23T13:45:07;100512.78;;;34.95;32.45
60886;BME280;46736;41.654;-8.438;2022-07-23T13:47:07;100522.09;;;35.30;32.21
60886;BME280;46736;41.654;-8.438;2022-07-23T13:49:08;100505.16;;;34.99;32.09
60886;BME280;46736;41.654;-8.438;2022-07-23T13:51:09;100510.00;;;34.92;30.89
60886;BME280;46736;41.654;-8.438;2022-07-23T13:53:17;100515.16;;;34.93;30.07
60886;BME280;46736;41.654;-8.438;2022-07-23T13:55:18;100500.53;;;34.75;29.79
60886;BME280;46736;41.654;-8.438;2022-07-23T13:57:19;100514.47;;;34.82;30.64
60886;BME280;46736;41.654;-8.438;2022-07-23T13:59:20;100508.31;;;35.05;30.77